createdAt,value
2018-03-14T00:00:40.076Z,24.60
2018-03-14T00:01:39.888Z,25.00
2018-03-14T00:02:39.876Z,23.10
2018-03-14T00:03:39.704Z,21.70
2018-03-14T00:04:39.711Z,22.00
2018-03-14T00:05:39.540Z,21.40
2018-03-14T00:06:39.525Z,20.90
2018-03-14T00:07:39.381Z,21.30
2018-03-14T00:08:39.410Z,21.10
2018-03-14T00:09:39.211Z,19.80
2018-03-14T00:10:39.218Z,19.60
2018-03-14T00:11:39.068Z,19.70
2018-03-14T00:12:39.057Z,20.00
2018-03-14T00:13:38.894Z,20.60
2018-03-14T00:14:38.938Z,20.70
2018-03-14T00:15:38.736Z,20.80
2018-03-14T00:16:38.749Z,20.10
2018-03-14T00:17:38.600Z,19.60
2018-03-14T00:18:38.551Z,20.00
2018-03-14T00:19:38.408Z,20.10
2018-03-14T00:20:38.499Z,20.40
2018-03-14T00:21:38.248Z,21.40
2018-03-14T00:22:39.234Z,20.20
2018-03-14T00:23:38.226Z,19.30
2018-03-14T00:24:37.997Z,20.00
2018-03-14T00:25:37.914Z,19.60
2018-03-14T00:26:37.886Z,20.90
2018-03-14T00:27:37.771Z,18.10
2018-03-14T00:28:37.822Z,19.40
2018-03-14T00:29:37.589Z,19.80
2018-03-14T00:30:37.609Z,19.90
2018-03-14T00:31:37.425Z,19.70
2018-03-14T00:32:37.411Z,18.80
2018-03-14T00:33:37.287Z,19.10
2018-03-14T00:34:37.228Z,19.10
2018-03-14T00:35:37.097Z,19.30
2018-03-14T00:36:37.783Z,20.10
2018-03-14T00:37:36.953Z,18.10
2018-03-14T00:38:36.987Z,17.80
2018-03-14T00:39:36.777Z,19.10
2018-03-14T00:40:36.755Z,20.50
2018-03-14T00:41:36.617Z,18.50
2018-03-14T00:42:36.659Z,18.60
2018-03-14T00:43:36.469Z,18.50
2018-03-14T00:44:36.468Z,18.00
2018-03-14T00:45:36.294Z,19.40
2018-03-14T00:46:36.279Z,21.00
2018-03-14T00:47:36.132Z,18.40
2018-03-14T00:48:36.127Z,19.40
2018-03-14T00:49:35.976Z,18.40
2018-03-14T00:50:35.903Z,19.50
2018-03-14T00:51:35.794Z,19.00
2018-03-14T00:52:35.807Z,20.10
2018-03-14T00:53:35.677Z,18.70
2018-03-14T00:54:35.610Z,19.30
2018-03-14T00:55:35.481Z,19.60
2018-03-14T00:56:35.523Z,19.80
2018-03-14T00:57:35.313Z,20.60
2018-03-14T00:58:35.368Z,20.40
2018-03-14T00:59:35.150Z,22.00
2018-03-14T01:00:35.142Z,21.10
2018-03-14T01:01:34.983Z,20.70
2018-03-14T01:02:34.951Z,21.10
2018-03-14T01:03:34.817Z,21.30
2018-03-14T01:04:34.781Z,21.90
2018-03-14T01:05:34.660Z,22.50
2018-03-14T01:06:34.679Z,21.50
2018-03-14T01:07:34.508Z,23.50
2018-03-14T01:08:34.481Z,23.40
2018-03-14T01:09:34.344Z,24.10
2018-03-14T01:10:34.286Z,23.50
2018-03-14T01:11:34.180Z,25.80
2018-03-14T01:12:34.237Z,25.70
2018-03-14T01:13:34.021Z,25.10
2018-03-14T01:14:33.952Z,24.50
2018-03-14T01:15:33.854Z,23.70
2018-03-14T01:16:33.851Z,24.40
2018-03-14T01:17:33.686Z,25.10
2018-03-14T01:18:33.733Z,26.70
2018-03-14T01:19:33.546Z,24.30
2018-03-14T01:20:33.595Z,24.80
2018-03-14T01:21:33.358Z,25.00
2018-03-14T01:22:33.337Z,24.10
2018-03-14T01:23:33.198Z,24.90
2018-03-14T01:24:33.146Z,24.40
2018-03-14T01:25:33.046Z,23.70
2018-03-14T01:26:33.059Z,24.40
2018-03-14T01:27:32.878Z,24.40
2018-03-14T01:28:32.872Z,23.80
2018-03-14T01:29:32.712Z,23.60
2018-03-14T01:30:32.707Z,24.10
2018-03-14T01:31:32.540Z,24.40
2018-03-14T01:32:32.589Z,23.60
2018-03-14T01:33:32.390Z,25.80
2018-03-14T01:34:32.399Z,27.10
2018-03-14T01:35:32.281Z,25.20
2018-03-14T01:36:32.615Z,25.30
2018-03-14T01:37:32.063Z,24.80
2018-03-14T01:40:14.249Z,25.70
2018-03-14T01:41:14.256Z,27.20
2018-03-14T01:42:14.123Z,25.70
2018-03-14T01:43:14.029Z,25.50
2018-03-14T01:44:13.898Z,26.70
2018-03-14T01:45:13.941Z,26.30
2018-03-14T01:46:13.763Z,26.90
2018-03-14T01:47:13.749Z,27.30
2018-03-14T01:48:13.567Z,26.30
2018-03-14T01:49:13.555Z,27.30
2018-03-14T01:50:13.400Z,26.90
2018-03-14T01:51:13.393Z,27.40
2018-03-14T01:52:13.246Z,27.90
2018-03-14T01:53:13.282Z,27.80
2018-03-14T01:54:13.076Z,27.40
2018-03-14T01:55:13.088Z,29.40
2018-03-14T01:56:12.945Z,27.60
2018-03-14T01:57:12.890Z,27.60
2018-03-14T01:58:12.757Z,28.10
2018-03-14T01:59:12.693Z,28.60
2018-03-14T02:00:12.594Z,28.50
2018-03-14T02:01:12.614Z,32.00
2018-03-14T02:02:12.513Z,29.70
2018-03-14T02:03:12.418Z,28.80
2018-03-14T02:04:12.264Z,28.20
2018-03-14T02:05:12.242Z,28.60
2018-03-14T02:06:12.113Z,29.10
2018-03-14T02:07:12.163Z,29.70
2018-03-14T02:08:11.945Z,28.80
2018-03-14T02:09:11.944Z,28.90
2018-03-14T02:10:11.784Z,28.80
2018-03-14T02:11:11.756Z,29.10
2018-03-14T02:12:11.635Z,29.50
2018-03-14T02:13:11.667Z,30.70
2018-03-14T02:14:11.494Z,29.70
2018-03-14T02:15:11.469Z,30.20
2018-03-14T02:16:11.293Z,30.20
2018-03-14T02:17:11.766Z,29.70
2018-03-14T02:18:11.128Z,30.70
2018-03-14T02:19:11.086Z,29.50
2018-03-14T02:20:10.964Z,29.00
2018-03-14T02:21:10.995Z,30.30
2018-03-14T02:22:10.825Z,29.20
2018-03-14T02:23:10.844Z,29.50
2018-03-14T02:24:10.647Z,29.30
2018-03-14T02:25:10.621Z,30.00
2018-03-14T02:26:10.481Z,29.90
2018-03-14T02:27:10.591Z,30.80
2018-03-14T02:28:10.323Z,30.00
2018-03-14T02:29:10.338Z,30.50
2018-03-14T02:30:10.169Z,31.40
2018-03-14T02:31:10.142Z,30.40
2018-03-14T02:32:09.997Z,31.10
2018-03-14T02:33:09.995Z,29.30
2018-03-14T02:34:09.832Z,28.70
2018-03-14T02:35:09.859Z,30.20
2018-03-14T02:36:09.678Z,30.50
2018-03-14T02:37:09.664Z,31.10
2018-03-14T02:38:09.539Z,30.20
2018-03-14T02:39:09.484Z,31.20
2018-03-14T02:40:09.349Z,31.50
2018-03-14T02:41:09.395Z,30.50
2018-03-14T02:42:09.184Z,29.70
2018-03-14T02:43:09.223Z,31.10
2018-03-14T02:44:09.029Z,29.30
2018-03-14T02:45:09.000Z,32.50
2018-03-14T02:46:08.858Z,30.80
2018-03-14T02:47:08.812Z,30.40
2018-03-14T02:48:08.727Z,30.60
2018-03-14T02:49:08.760Z,30.80
2018-03-14T02:50:08.538Z,31.00
2018-03-14T02:51:08.529Z,33.50
2018-03-14T02:52:08.384Z,29.60
2018-03-14T02:53:08.341Z,31.30
2018-03-14T02:54:08.227Z,31.20
2018-03-14T02:55:08.255Z,31.40
2018-03-14T02:56:08.050Z,30.70
2018-03-14T02:57:08.066Z,31.80
2018-03-14T02:58:07.906Z,30.80
2018-03-14T02:59:07.905Z,31.20
2018-03-14T03:00:07.723Z,30.70
2018-03-14T03:01:07.904Z,31.50
2018-03-14T03:02:07.573Z,30.90
2018-03-14T03:03:07.583Z,31.50
2018-03-14T03:04:07.427Z,31.90
2018-03-14T03:05:07.445Z,30.70
2018-03-14T03:06:07.240Z,31.00
2018-03-14T03:07:07.207Z,31.90
2018-03-14T03:08:07.123Z,31.90
2018-03-14T03:09:07.126Z,30.50
2018-03-14T03:10:06.931Z,32.20
2018-03-14T03:11:06.848Z,31.50
2018-03-14T03:12:06.758Z,31.90
2018-03-14T03:13:06.739Z,33.50
2018-03-14T03:14:06.628Z,32.20
2018-03-14T03:15:06.646Z,29.70
2018-03-14T03:16:06.431Z,30.90
2018-03-14T03:17:06.453Z,33.00
2018-03-14T03:18:06.269Z,32.30
2018-03-14T03:19:06.262Z,31.40
2018-03-14T03:20:06.130Z,31.80
2018-03-14T03:21:06.080Z,33.90
2018-03-14T03:22:05.944Z,35.10
2018-03-14T03:23:05.988Z,32.90
2018-03-14T03:24:05.783Z,35.40
2018-03-14T03:25:05.946Z,31.60
2018-03-14T03:26:05.624Z,34.10
2018-03-14T03:27:05.603Z,32.70
2018-03-14T03:28:05.483Z,33.70
2018-03-14T03:30:47.752Z,35.80
2018-03-14T03:31:47.700Z,33.50
2018-03-14T03:32:47.574Z,35.60
2018-03-14T03:33:47.620Z,35.00
2018-03-14T03:34:47.408Z,34.60
2018-03-14T03:35:47.440Z,35.00
2018-03-14T03:36:47.273Z,36.80
2018-03-14T03:37:47.235Z,34.20
2018-03-14T03:38:47.088Z,35.60
2018-03-14T03:39:47.040Z,38.00
2018-03-14T03:40:46.957Z,33.60
2018-03-14T03:41:46.990Z,37.30
2018-03-14T03:42:46.763Z,35.00
2018-03-14T03:43:46.769Z,37.50
2018-03-14T03:44:46.642Z,35.90
2018-03-14T03:45:46.908Z,38.80
2018-03-14T03:46:46.483Z,34.00
2018-03-14T03:47:47.205Z,35.50
2018-03-14T03:48:46.276Z,35.60
2018-03-14T03:49:46.291Z,34.70
2018-03-14T03:50:46.138Z,35.60
2018-03-14T03:51:46.098Z,36.30
2018-03-14T03:52:45.957Z,34.80
2018-03-14T03:53:45.882Z,37.40
2018-03-14T03:54:45.793Z,36.60
2018-03-14T03:55:45.857Z,35.00
2018-03-14T03:56:45.659Z,37.30
2018-03-14T03:57:45.631Z,38.40
2018-03-14T03:58:45.470Z,38.60
2018-03-14T03:59:45.437Z,37.00
2018-03-14T04:00:45.316Z,41.00
2018-03-14T04:01:45.278Z,41.50
2018-03-14T04:02:45.137Z,37.40
2018-03-14T04:03:45.154Z,36.80
2018-03-14T04:04:44.992Z,38.40
2018-03-14T04:05:44.960Z,36.90
2018-03-14T04:06:44.905Z,37.80
2018-03-14T04:07:44.877Z,38.10
2018-03-14T04:08:44.658Z,35.90
2018-03-14T04:09:44.685Z,37.50
2018-03-14T04:10:44.499Z,39.00
2018-03-14T04:11:44.497Z,37.40
2018-03-14T04:12:44.356Z,37.80
2018-03-14T04:13:44.297Z,37.80
2018-03-14T04:14:44.171Z,36.90
2018-03-14T04:15:44.227Z,40.20
2018-03-14T04:16:44.053Z,39.50
2018-03-14T04:17:44.060Z,38.40
2018-03-14T04:18:43.845Z,36.80
2018-03-14T04:19:43.848Z,38.30
2018-03-14T04:20:43.691Z,37.80
2018-03-14T04:21:43.734Z,38.50
2018-03-14T04:22:43.547Z,37.30
2018-03-14T04:23:43.546Z,37.60
2018-03-14T04:24:43.362Z,38.60
2018-03-14T04:25:43.362Z,40.80
2018-03-14T04:26:43.206Z,39.20
2018-03-14T04:27:43.207Z,37.40
2018-03-14T04:28:43.063Z,38.30
2018-03-14T04:29:43.070Z,38.20
2018-03-14T04:30:42.875Z,40.30
2018-03-14T04:31:42.884Z,39.40
2018-03-14T04:32:42.710Z,38.10
2018-03-14T04:33:42.724Z,40.20
2018-03-14T04:34:42.564Z,41.70
2018-03-14T04:35:42.591Z,39.70
2018-03-14T04:36:43.317Z,38.50
2018-03-14T04:37:42.438Z,38.20
2018-03-14T04:38:42.223Z,39.80
2018-03-14T04:39:42.260Z,39.10
2018-03-14T04:40:42.063Z,40.50
2018-03-14T04:41:42.022Z,38.90
2018-03-14T04:42:41.898Z,41.80
2018-03-14T04:43:41.970Z,40.90
2018-03-14T04:44:41.735Z,39.90
2018-03-14T04:45:41.745Z,43.00
2018-03-14T04:46:41.573Z,41.70
2018-03-14T04:47:41.554Z,42.90
2018-03-14T04:48:41.427Z,42.30
2018-03-14T04:49:41.402Z,40.60
2018-03-14T04:50:41.252Z,41.80
2018-03-14T04:51:41.284Z,43.30
2018-03-14T04:52:41.094Z,40.60
2018-03-14T04:53:41.119Z,39.60
2018-03-14T04:54:40.957Z,40.40
2018-03-14T04:55:40.887Z,40.50
2018-03-14T04:56:40.761Z,41.00
2018-03-14T04:57:40.806Z,40.90
2018-03-14T04:58:40.604Z,41.90
2018-03-14T04:59:40.644Z,42.10
2018-03-14T05:00:40.435Z,41.20
2018-03-14T05:01:40.419Z,41.20
2018-03-14T05:02:40.283Z,40.90
2018-03-14T05:03:40.265Z,40.50
2018-03-14T05:04:40.133Z,41.90
2018-03-14T05:05:40.137Z,41.10
2018-03-14T05:06:39.962Z,42.40
2018-03-14T05:07:39.951Z,42.70
2018-03-14T05:08:39.788Z,43.70
2018-03-14T05:09:39.783Z,42.20
2018-03-14T05:10:39.617Z,42.40
2018-03-14T05:11:39.668Z,44.30
2018-03-14T05:12:39.475Z,40.40
2018-03-14T05:13:39.474Z,41.10
2018-03-14T05:14:39.316Z,45.10
2018-03-14T05:15:39.405Z,41.90
2018-03-14T05:16:39.126Z,46.30
2018-03-14T05:17:39.086Z,42.70
2018-03-14T05:18:38.972Z,42.70
2018-03-14T05:19:38.909Z,41.90
2018-03-14T05:20:38.825Z,43.00
2018-03-14T05:21:38.807Z,42.20
2018-03-14T05:22:38.648Z,43.10
2018-03-14T05:23:38.615Z,41.70
2018-03-14T05:24:38.486Z,43.30
2018-03-14T05:25:38.454Z,41.50
2018-03-14T05:26:38.327Z,41.10
2018-03-14T05:27:38.331Z,42.30
2018-03-14T05:28:38.155Z,41.70
2018-03-14T05:29:38.146Z,42.80
2018-03-14T05:30:38.020Z,44.20
2018-03-14T05:31:37.945Z,107.70
2018-03-14T05:32:37.866Z,88.20
2018-03-14T05:33:37.859Z,115.30
2018-03-14T05:34:37.719Z,96.30
2018-03-14T05:35:37.704Z,72.00
2018-03-14T05:36:37.506Z,44.30
2018-03-14T05:37:37.482Z,45.30
2018-03-14T05:38:37.353Z,43.20
2018-03-14T05:39:37.386Z,42.30
2018-03-14T05:40:37.206Z,43.00
2018-03-14T05:41:37.292Z,39.70
2018-03-14T05:42:37.020Z,37.80
2018-03-14T05:43:37.004Z,40.40
2018-03-14T05:44:36.850Z,38.50
2018-03-14T05:45:36.810Z,40.00
2018-03-14T05:46:36.706Z,38.00
2018-03-14T05:47:36.724Z,35.40
2018-03-14T05:48:36.544Z,39.60
2018-03-14T05:49:36.529Z,39.70
2018-03-14T05:50:36.368Z,40.70
2018-03-14T05:51:36.350Z,41.40
2018-03-14T05:52:36.205Z,38.40
2018-03-14T05:53:36.257Z,35.00
2018-03-14T05:54:36.039Z,33.70
2018-03-14T05:55:36.063Z,38.50
2018-03-14T05:56:35.897Z,37.20
2018-03-14T05:57:35.870Z,37.60
2018-03-14T05:58:35.717Z,40.70
2018-03-14T05:59:35.675Z,38.00
2018-03-14T06:00:35.552Z,38.30
2018-03-14T06:01:35.636Z,435.60
2018-03-14T06:02:35.389Z,369.50
2018-03-14T06:03:35.395Z,88.40
2018-03-14T06:04:35.227Z,85.90
2018-03-14T06:05:35.208Z,74.80
2018-03-14T06:06:35.081Z,55.60
2018-03-14T06:07:35.041Z,56.20
2018-03-14T06:08:34.921Z,48.70
2018-03-14T06:09:34.932Z,43.70
2018-03-14T06:10:34.746Z,34.30
2018-03-14T06:11:34.801Z,40.50
2018-03-14T06:12:34.579Z,34.40
2018-03-14T06:13:34.506Z,32.80
2018-03-14T06:14:34.418Z,35.80
2018-03-14T06:15:34.447Z,34.00
2018-03-14T06:16:34.283Z,32.40
2018-03-14T06:17:34.306Z,31.30
2018-03-14T06:18:34.084Z,31.90
2018-03-14T06:19:34.069Z,33.40
2018-03-14T06:20:33.924Z,33.10
2018-03-14T06:21:33.856Z,31.60
2018-03-14T06:22:33.789Z,30.60
2018-03-14T06:23:33.787Z,30.70
2018-03-14T06:24:33.606Z,28.60
2018-03-14T06:25:33.623Z,29.50
2018-03-14T06:26:33.438Z,28.70
2018-03-14T06:27:45.961Z,28.50
2018-03-14T06:28:33.278Z,29.90
2018-03-14T06:29:33.341Z,28.00
2018-03-14T06:30:33.114Z,29.30
2018-03-14T06:31:33.151Z,29.20
2018-03-14T06:32:32.961Z,29.30
2018-03-14T06:33:35.052Z,28.40
2018-03-14T06:34:32.788Z,31.00
2018-03-14T06:35:32.875Z,30.40
2018-03-14T06:36:32.641Z,30.60
2018-03-14T06:37:32.681Z,29.20
2018-03-14T06:38:32.486Z,34.20
2018-03-14T06:41:26.289Z,32.30
2018-03-14T06:42:26.264Z,34.40
2018-03-14T06:43:26.124Z,35.10
2018-03-14T06:44:26.184Z,35.20
2018-03-14T06:45:25.939Z,35.60
2018-03-14T06:48:07.801Z,37.00
2018-03-14T06:49:07.775Z,37.00
2018-03-14T06:50:07.604Z,37.90
2018-03-14T06:51:07.593Z,37.80
2018-03-14T06:52:07.454Z,37.40
2018-03-14T06:53:07.428Z,38.00
2018-03-14T06:54:07.284Z,38.20
2018-03-14T06:55:07.302Z,38.40
2018-03-14T06:56:07.117Z,39.40
2018-03-14T06:57:07.121Z,38.60
2018-03-14T06:58:06.985Z,39.50
2018-03-14T06:59:14.906Z,39.40
2018-03-14T07:00:06.793Z,38.40
2018-03-14T07:01:06.832Z,38.40
2018-03-14T07:09:42.178Z,38.70
2018-03-14T07:16:29.748Z,37.00
2018-03-14T07:17:29.640Z,36.80
2018-03-14T07:18:29.557Z,37.30
2018-03-14T07:19:29.476Z,37.50
2018-03-14T07:20:29.415Z,36.30
2018-03-14T07:21:29.323Z,36.50
2018-03-14T07:22:29.245Z,36.00
2018-03-14T07:23:29.202Z,35.00
2018-03-14T07:24:29.072Z,34.50
2018-03-14T07:25:29.004Z,33.40
2018-03-14T07:26:29.010Z,31.10
2018-03-14T07:27:28.826Z,30.60
2018-03-14T07:28:28.785Z,30.30
2018-03-14T07:29:28.801Z,28.70
2018-03-14T07:30:28.592Z,29.30
2018-03-14T07:31:28.511Z,27.60
2018-03-14T07:32:28.434Z,28.80
2018-03-14T07:33:28.347Z,28.50
2018-03-14T07:34:28.263Z,30.20
2018-03-14T07:35:28.175Z,31.10
2018-03-14T07:36:28.224Z,29.10
2018-03-14T07:37:28.021Z,30.90
2018-03-14T07:38:27.953Z,30.50
2018-03-14T07:39:27.861Z,29.50
2018-03-14T07:40:27.782Z,29.70
2018-03-14T07:41:27.711Z,29.00
2018-03-14T07:42:27.633Z,29.30
2018-03-14T07:43:27.544Z,29.00
2018-03-14T07:44:27.502Z,28.30
2018-03-14T07:45:27.389Z,26.10
2018-03-14T07:46:27.336Z,25.50
2018-03-14T07:47:27.215Z,25.70
2018-03-14T07:48:27.160Z,24.70
2018-03-14T07:49:27.122Z,23.30
2018-03-14T07:50:26.994Z,22.80
2018-03-14T07:51:26.927Z,23.20
2018-03-14T07:52:26.853Z,22.60
2018-03-14T07:53:26.763Z,23.00
2018-03-14T07:54:26.718Z,26.60
2018-03-14T07:55:26.610Z,28.10
2018-03-14T07:56:26.560Z,35.30
2018-03-14T07:57:26.465Z,36.40
2018-03-14T07:58:26.377Z,36.50
2018-03-14T07:59:26.287Z,39.60
2018-03-14T08:00:26.234Z,40.50
2018-03-14T08:01:26.125Z,43.20
2018-03-14T08:02:26.309Z,42.90
2018-03-14T08:03:25.971Z,41.20
2018-03-14T08:04:25.904Z,40.40
2018-03-14T08:05:25.817Z,40.00
2018-03-14T08:06:25.872Z,39.80
2018-03-14T08:07:25.675Z,39.40
2018-03-14T08:08:25.717Z,40.00
2018-03-14T08:09:25.552Z,40.40
2018-03-14T08:10:25.431Z,40.90
2018-03-14T08:11:25.352Z,40.40
2018-03-14T08:12:25.306Z,41.30
2018-03-14T08:13:25.285Z,39.90
2018-03-14T08:14:25.170Z,40.30
2018-03-14T08:15:25.032Z,41.10
2018-03-14T08:16:25.012Z,40.10
2018-03-14T08:17:24.910Z,40.40
2018-03-14T08:18:24.844Z,40.10
2018-03-14T08:19:24.743Z,39.10
2018-03-14T08:20:24.730Z,39.40
2018-03-14T08:21:24.567Z,38.30
2018-03-14T08:22:24.709Z,38.00
2018-03-14T08:23:24.422Z,38.20
2018-03-14T08:24:24.450Z,38.90
2018-03-14T08:25:24.268Z,38.10
2018-03-14T08:26:24.259Z,35.50
2018-03-14T08:27:24.079Z,32.40
2018-03-14T08:28:24.050Z,31.50
2018-03-14T08:29:23.915Z,28.80
2018-03-14T08:30:23.873Z,28.20
2018-03-14T08:31:23.765Z,27.80
2018-03-14T08:32:23.695Z,25.20
2018-03-14T08:33:23.627Z,22.60
2018-03-14T08:34:23.597Z,25.10
2018-03-14T08:35:23.445Z,28.30
2018-03-14T08:36:23.396Z,29.60
2018-03-14T08:37:23.296Z,30.40
2018-03-14T08:38:23.257Z,31.00
2018-03-14T08:39:23.168Z,30.00
2018-03-14T08:40:23.118Z,28.80
2018-03-14T08:41:22.971Z,29.30
2018-03-14T08:42:22.926Z,28.60
2018-03-14T08:43:22.863Z,27.30
2018-03-14T08:44:22.830Z,28.00
2018-03-14T08:45:22.661Z,28.50
2018-03-14T08:46:22.654Z,26.80
2018-03-14T08:47:22.512Z,25.60
2018-03-14T08:48:22.551Z,26.30
2018-03-14T08:49:22.373Z,28.30
2018-03-14T08:50:22.419Z,27.20
2018-03-14T08:51:22.199Z,28.80
2018-03-14T08:52:22.180Z,27.00
2018-03-14T08:53:22.036Z,25.90
2018-03-14T08:54:22.037Z,25.70
2018-03-14T08:55:21.899Z,28.00
2018-03-14T08:56:21.970Z,27.30
2018-03-14T08:57:21.736Z,27.70
2018-03-14T09:00:03.830Z,25.50
2018-03-14T09:01:03.839Z,23.70
2018-03-14T09:02:03.672Z,24.30
2018-03-14T09:03:03.606Z,24.00
2018-03-14T09:04:03.535Z,24.70
2018-03-14T09:05:03.429Z,26.00
2018-03-14T09:06:03.338Z,26.90
2018-03-14T09:07:03.338Z,26.50
2018-03-14T09:08:03.185Z,25.60
2018-03-14T09:09:03.189Z,23.00
2018-03-14T09:10:03.025Z,22.20
2018-03-14T09:11:03.099Z,22.80
2018-03-14T09:12:02.860Z,22.60
2018-03-14T09:13:02.858Z,20.80
2018-03-14T09:14:02.719Z,20.10
2018-03-14T09:15:02.654Z,19.70
2018-03-14T09:16:02.547Z,19.20
2018-03-14T09:17:02.577Z,19.40
2018-03-14T09:18:02.475Z,18.30
2018-03-14T09:19:02.433Z,17.50
2018-03-14T09:20:02.241Z,16.20
2018-03-14T09:21:02.198Z,16.60
2018-03-14T09:22:02.081Z,16.00
2018-03-14T09:23:02.129Z,16.90
2018-03-14T09:24:01.915Z,18.00
2018-03-14T09:25:01.959Z,17.70
2018-03-14T09:26:01.771Z,19.20
2018-03-14T09:27:01.770Z,19.30
2018-03-14T09:28:01.611Z,20.00
2018-03-14T09:29:01.633Z,20.20
2018-03-14T09:30:01.452Z,21.80
2018-03-14T09:31:01.563Z,22.20
2018-03-14T09:32:01.308Z,20.40
2018-03-14T09:33:01.257Z,26.00
2018-03-14T09:34:01.141Z,24.10
2018-03-14T09:35:01.176Z,23.70
2018-03-14T09:36:01.009Z,22.80
2018-03-14T09:37:00.925Z,20.90
2018-03-14T09:38:00.834Z,20.50
2018-03-14T09:39:00.779Z,20.50
2018-03-14T09:40:00.676Z,20.30
2018-03-14T09:41:00.738Z,20.30
2018-03-14T09:42:00.555Z,19.80
2018-03-14T09:43:00.482Z,20.20
2018-03-14T09:44:00.342Z,18.30
2018-03-14T09:45:00.293Z,18.60
2018-03-14T09:46:00.228Z,18.60
2018-03-14T09:47:00.270Z,18.20
2018-03-14T09:48:00.063Z,17.80
2018-03-14T09:49:00.026Z,18.60
2018-03-14T09:49:59.950Z,18.30
2018-03-14T09:50:59.936Z,19.10
2018-03-14T09:51:59.734Z,18.10
2018-03-14T09:52:59.793Z,18.70
2018-03-14T09:53:59.608Z,17.70
2018-03-14T09:54:59.558Z,17.70
2018-03-14T09:55:59.430Z,17.20
2018-03-14T09:56:59.378Z,16.70
2018-03-14T09:57:59.321Z,15.10
2018-03-14T09:58:59.269Z,16.30
2018-03-14T09:59:59.144Z,15.80
2018-03-14T10:00:59.078Z,16.50
2018-03-14T10:01:58.975Z,16.00
2018-03-14T10:02:59.030Z,15.30
2018-03-14T10:03:58.839Z,14.90
2018-03-14T10:04:58.779Z,15.70
2018-03-14T10:05:58.708Z,16.20
2018-03-14T10:06:58.636Z,16.20
2018-03-14T10:07:58.570Z,16.50
2018-03-14T10:08:58.487Z,15.40
2018-03-14T10:09:58.394Z,15.80
2018-03-14T10:10:58.432Z,16.00
2018-03-14T10:11:58.258Z,15.40
2018-03-14T10:12:58.381Z,17.10
2018-03-14T10:13:58.101Z,15.40
2018-03-14T10:14:58.145Z,16.50
2018-03-14T10:15:58.079Z,16.00
2018-03-14T10:16:57.894Z,16.20
2018-03-14T10:17:57.847Z,17.10
2018-03-14T10:18:57.783Z,17.00
2018-03-14T10:19:57.675Z,15.40
2018-03-14T10:20:57.611Z,16.10
2018-03-14T10:21:57.516Z,19.10
2018-03-14T10:22:57.496Z,15.90
2018-03-14T10:23:57.423Z,15.10
2018-03-14T10:24:57.394Z,15.80
2018-03-14T10:25:57.322Z,15.00
2018-03-14T10:26:57.209Z,14.50
2018-03-14T10:27:57.106Z,14.20
2018-03-14T10:28:57.101Z,14.00
2018-03-14T10:29:56.940Z,13.50
2018-03-14T10:30:56.926Z,13.30
2018-03-14T10:31:56.890Z,13.50
2018-03-14T10:32:56.735Z,13.60
2018-03-14T10:33:56.673Z,13.10
2018-03-14T10:34:56.720Z,14.60
2018-03-14T10:35:56.504Z,15.10
2018-03-14T10:36:56.547Z,15.00
2018-03-14T10:37:56.361Z,14.40
2018-03-14T10:38:56.392Z,14.60
2018-03-14T10:39:56.228Z,15.10
2018-03-14T10:40:56.304Z,16.20
2018-03-14T10:41:56.183Z,16.60
2018-03-14T10:42:56.082Z,16.40
2018-03-14T10:43:55.935Z,15.70
2018-03-14T10:44:55.903Z,15.20
2018-03-14T10:45:55.792Z,15.20
2018-03-14T10:46:55.723Z,16.80
2018-03-14T10:47:55.635Z,15.20
2018-03-14T10:48:55.608Z,17.00
2018-03-14T10:49:55.512Z,14.60
2018-03-14T10:50:55.428Z,15.50
2018-03-14T10:51:55.340Z,15.70
2018-03-14T10:52:55.293Z,14.80
2018-03-14T10:53:55.209Z,13.50
2018-03-14T10:54:55.159Z,12.70
2018-03-14T10:55:55.060Z,12.60
2018-03-14T10:56:54.989Z,11.90
2018-03-14T10:57:54.955Z,13.00
2018-03-14T10:58:54.852Z,13.60
2018-03-14T10:59:54.783Z,14.40
2018-03-14T11:00:55.419Z,15.30
2018-03-14T11:01:54.591Z,14.20
2018-03-14T11:02:54.557Z,14.80
2018-03-14T11:03:54.446Z,15.60
2018-03-14T11:04:54.389Z,14.70
2018-03-14T11:05:54.322Z,14.20
2018-03-14T11:06:54.237Z,14.10
2018-03-14T11:07:54.137Z,14.60
2018-03-14T11:08:54.077Z,14.90
2018-03-14T11:09:54.005Z,15.00
2018-03-14T11:10:53.949Z,14.60
2018-03-14T11:11:53.872Z,15.60
2018-03-14T11:12:53.783Z,15.00
2018-03-14T11:13:53.739Z,15.60
2018-03-14T11:14:53.635Z,16.10
2018-03-14T11:15:53.557Z,15.20
2018-03-14T11:16:53.520Z,15.30
2018-03-14T11:17:53.391Z,15.40
2018-03-14T11:18:53.320Z,16.10
2018-03-14T11:19:53.237Z,14.20
2018-03-14T11:20:53.179Z,17.00
2018-03-14T11:21:53.523Z,15.30
2018-03-14T11:22:53.003Z,15.20
2018-03-14T11:23:52.956Z,15.00
2018-03-14T11:24:52.856Z,14.90
2018-03-14T11:25:52.769Z,15.50
2018-03-14T11:26:52.716Z,13.80
2018-03-14T11:27:52.613Z,13.60
2018-03-14T11:28:52.568Z,14.10
2018-03-14T11:29:52.532Z,14.50
2018-03-14T11:30:52.397Z,13.90
2018-03-14T11:31:52.344Z,14.90
2018-03-14T11:32:52.247Z,14.10
2018-03-14T11:33:52.179Z,14.30
2018-03-14T11:34:52.086Z,15.20
2018-03-14T11:35:52.018Z,13.80
2018-03-14T11:36:52.029Z,14.90
2018-03-14T11:37:51.871Z,15.00
2018-03-14T11:38:51.802Z,13.20
2018-03-14T11:39:51.773Z,13.20
2018-03-14T11:40:51.648Z,13.30
2018-03-14T11:41:51.592Z,13.90
2018-03-14T11:42:51.540Z,13.50
2018-03-14T11:43:51.422Z,13.40
2018-03-14T11:44:51.369Z,14.00
2018-03-14T11:45:51.279Z,13.40
2018-03-14T11:46:51.222Z,14.20
2018-03-14T11:47:51.124Z,13.50
2018-03-14T11:48:51.068Z,14.20
2018-03-14T11:49:50.977Z,13.40
2018-03-14T11:50:50.921Z,13.90
2018-03-14T11:51:50.844Z,13.30
2018-03-14T11:52:50.765Z,13.40
2018-03-14T11:53:50.682Z,14.80
2018-03-14T11:54:50.615Z,13.50
2018-03-14T11:55:50.537Z,13.50
2018-03-14T11:56:51.499Z,13.40
2018-03-14T11:57:50.387Z,13.10
2018-03-14T11:58:50.346Z,15.10
2018-03-14T11:59:50.235Z,12.70
2018-03-14T12:00:50.182Z,12.80
2018-03-14T12:01:50.141Z,12.90
2018-03-14T12:02:50.075Z,12.30
2018-03-14T12:03:49.951Z,13.80
2018-03-14T12:04:49.891Z,12.90
2018-03-14T12:05:49.825Z,13.00
2018-03-14T12:06:49.740Z,13.30
2018-03-14T12:07:49.678Z,12.70
2018-03-14T12:08:49.605Z,12.50
2018-03-14T12:09:49.523Z,12.30
2018-03-14T12:10:49.462Z,12.70
2018-03-14T12:11:49.375Z,12.90
2018-03-14T12:12:49.429Z,12.10
2018-03-14T12:13:49.231Z,11.90
2018-03-14T12:14:49.226Z,13.70
2018-03-14T12:15:49.082Z,13.60
2018-03-14T12:16:49.042Z,12.00
2018-03-14T12:17:48.968Z,13.30
2018-03-14T12:18:48.971Z,14.30
2018-03-14T12:19:48.798Z,11.90
2018-03-14T12:20:48.834Z,12.80
2018-03-14T12:21:48.659Z,12.80
2018-03-14T12:22:48.584Z,14.90
2018-03-14T12:23:48.514Z,11.90
2018-03-14T12:24:48.505Z,11.40
2018-03-14T12:25:48.349Z,11.20
2018-03-14T12:26:48.367Z,11.40
2018-03-14T12:27:48.220Z,11.40
2018-03-14T12:28:48.231Z,11.40
2018-03-14T12:29:48.052Z,11.80
2018-03-14T12:30:48.166Z,11.90
2018-03-14T12:31:47.901Z,11.70
2018-03-14T12:32:47.899Z,11.60
2018-03-14T12:33:47.759Z,12.80
2018-03-14T12:34:47.708Z,11.80
2018-03-14T12:35:47.602Z,11.30
2018-03-14T12:36:47.623Z,10.90
2018-03-14T12:37:47.453Z,11.00
2018-03-14T12:38:47.478Z,11.40
2018-03-14T12:39:47.284Z,12.10
2018-03-14T12:40:47.225Z,11.30
2018-03-14T12:41:47.124Z,11.50
2018-03-14T12:42:51.409Z,12.30
2018-03-14T12:43:49.906Z,11.50
2018-03-14T12:44:47.406Z,11.60
2018-03-14T12:45:46.811Z,10.70
2018-03-14T12:46:46.883Z,12.60
2018-03-14T12:47:46.645Z,10.90
2018-03-14T12:48:46.668Z,10.90
2018-03-14T12:49:46.520Z,11.00
2018-03-14T12:50:46.475Z,11.00
2018-03-14T12:51:46.329Z,12.30
2018-03-14T12:52:46.267Z,12.50
2018-03-14T12:53:46.184Z,11.40
2018-03-14T12:54:46.356Z,11.90
2018-03-14T12:55:46.022Z,11.40
2018-03-14T12:56:46.027Z,11.70
2018-03-14T12:57:45.864Z,11.80
2018-03-14T12:58:45.797Z,11.40
2018-03-14T12:59:45.734Z,12.40
2018-03-14T13:00:45.651Z,12.80
2018-03-14T13:01:45.554Z,11.60
2018-03-14T13:02:45.484Z,11.50
2018-03-14T13:03:45.453Z,12.40
2018-03-14T13:04:45.326Z,11.30
2018-03-14T13:05:45.262Z,13.10
2018-03-14T13:06:45.157Z,12.40
2018-03-14T13:07:45.089Z,11.80
2018-03-14T13:08:45.049Z,11.80
2018-03-14T13:09:44.947Z,11.80
2018-03-14T13:10:44.974Z,11.10
2018-03-14T13:11:44.822Z,11.50
2018-03-14T13:12:44.793Z,10.30
2018-03-14T13:13:44.598Z,10.30